createdAt,value
2018-07-13T00:01:44.578Z,101878.97
2018-07-13T00:04:11.909Z,101878.92
2018-07-13T00:06:39.824Z,101878.41
2018-07-13T00:09:08.621Z,101884.66
2018-07-13T00:11:36.112Z,101884.15
2018-07-13T00:14:11.289Z,101881.50
2018-07-13T00:16:38.639Z,101877.73
2018-07-13T00:19:05.992Z,101879.92
2018-07-13T00:21:33.577Z,101879.92
2018-07-13T00:24:01.187Z,101873.34
2018-07-13T00:26:28.410Z,101878.41
2018-07-13T00:28:55.816Z,101869.80
2018-07-13T00:31:23.097Z,101867.95
2018-07-13T00:33:50.344Z,101873.35
2018-07-13T00:36:17.600Z,101876.22
2018-07-13T00:38:45.229Z,101874.70
2018-07-13T00:41:12.466Z,101880.77
2018-07-13T00:43:39.731Z,101877.06
2018-07-13T00:46:07.141Z,101875.42
2018-07-13T00:48:34.711Z,101870.36
2018-07-13T00:51:02.014Z,101878.45
2018-07-13T00:53:29.285Z,101879.94
2018-07-13T00:55:56.765Z,101876.27
2018-07-13T00:58:24.029Z,101878.80
2018-07-13T01:00:51.292Z,101879.13
2018-07-13T01:03:18.593Z,101874.24
2018-07-13T01:05:46.282Z,101878.29
2018-07-13T01:08:13.677Z,101877.63
2018-07-13T01:10:40.918Z,101882.00
2018-07-13T01:13:08.411Z,101878.80
2018-07-13T01:15:35.776Z,101884.37
2018-07-13T01:18:03.226Z,101880.31
2018-07-13T01:20:30.444Z,101879.30
2018-07-13T01:22:57.681Z,101880.15
2018-07-13T01:25:24.962Z,101881.17
2018-07-13T01:27:52.268Z,101877.78
2018-07-13T01:30:19.541Z,101872.05
2018-07-13T01:32:46.852Z,101873.06
2018-07-13T01:35:14.325Z,101878.13
2018-07-13T01:37:41.678Z,101866.82
2018-07-13T01:40:09.363Z,101873.39
2018-07-13T01:42:36.637Z,101853.34
2018-07-13T01:45:04.389Z,101880.99
2018-07-13T01:47:32.015Z,101878.29
2018-07-13T01:49:59.294Z,101875.77
2018-07-13T01:52:26.665Z,101873.40
2018-07-13T01:54:53.893Z,101876.27
2018-07-13T01:57:21.201Z,101880.65
2018-07-13T01:59:48.853Z,101879.30
2018-07-13T02:02:16.205Z,101873.73
2018-07-13T02:04:43.501Z,101872.55
2018-07-13T02:07:10.747Z,101867.66
2018-07-13T02:09:38.028Z,101863.44
2018-07-13T02:12:05.635Z,101860.74
2018-07-13T02:14:33.359Z,101866.31
2018-07-13T02:17:00.698Z,101866.31
2018-07-13T02:19:28.019Z,101867.16
2018-07-13T02:21:55.443Z,101858.38
2018-07-13T02:24:22.947Z,101850.97
2018-07-13T02:26:50.193Z,101859.90
2018-07-13T02:29:17.436Z,101852.65
2018-07-13T02:31:44.683Z,101854.50
2018-07-13T02:34:11.938Z,101852.14
2018-07-13T11:11:55.327Z,101928.75
2018-07-13T11:14:22.916Z,101924.42
2018-07-13T11:16:50.167Z,101922.24
2018-07-13T11:19:17.416Z,101918.54
2018-07-13T11:21:45.233Z,101909.69
2018-07-13T11:24:12.487Z,101915.97
2018-07-13T11:26:39.922Z,101914.52
2018-07-13T11:29:07.115Z,101913.52
2018-07-13T11:31:34.334Z,101921.70
2018-07-13T11:34:01.629Z,101915.02
2018-07-13T11:36:28.825Z,101915.70
2018-07-13T11:38:56.054Z,101911.73
2018-07-13T11:41:23.281Z,101911.56
2018-07-13T11:43:50.518Z,101914.34
2018-07-13T11:46:19.959Z,101915.52
2018-07-13T11:48:47.294Z,101910.71
2018-07-13T11:51:14.645Z,101917.39
2018-07-13T11:53:42.650Z,101918.07
2018-07-13T11:56:10.774Z,101913.58
2018-07-13T11:58:38.025Z,101913.55
2018-07-13T12:01:05.633Z,101911.54
2018-07-13T12:03:32.939Z,101911.66
2018-07-13T12:06:00.182Z,101910.12
2018-07-13T12:08:27.438Z,101913.70
2018-07-13T12:10:54.708Z,101906.14
2018-07-13T12:13:21.955Z,101911.44
2018-07-13T12:15:49.267Z,101907.45
2018-07-13T12:18:16.634Z,101898.35
2018-07-13T12:20:43.966Z,101903.30
2018-07-13T12:23:11.235Z,101900.09
2018-07-13T12:25:38.482Z,101895.38
2018-07-13T12:28:05.740Z,101892.20
2018-07-13T12:30:32.977Z,101899.88
2018-07-13T12:33:00.357Z,101891.94
2018-07-13T12:35:27.625Z,101892.52
2018-07-13T12:37:54.889Z,101900.64
2018-07-13T12:40:22.196Z,101897.69
2018-07-13T12:42:49.571Z,101905.56
2018-07-13T12:45:16.888Z,101907.28
2018-07-13T12:47:44.344Z,101907.02
2018-07-13T12:50:11.774Z,101910.08
2018-07-13T12:52:39.014Z,101902.19
2018-07-13T12:55:06.382Z,101910.83
2018-07-13T12:57:34.697Z,101893.65
2018-07-13T13:00:02.688Z,101898.30
2018-07-13T13:02:30.968Z,101894.44
2018-07-13T13:04:58.566Z,101895.07
2018-07-13T13:07:26.081Z,101898.97
2018-07-13T13:09:53.599Z,101900.91
2018-07-13T13:12:21.179Z,101897.81
2018-07-13T13:14:48.434Z,101896.48
2018-07-13T13:17:16.365Z,101903.17
2018-07-13T13:19:43.676Z,101899.53
2018-07-13T13:22:11.297Z,101903.44
2018-07-13T13:24:38.969Z,101897.09
2018-07-13T13:27:06.254Z,101892.86
2018-07-13T13:29:33.615Z,101898.03
2018-07-13T13:32:01.399Z,101898.52
2018-07-13T13:34:28.810Z,101898.87
2018-07-13T13:36:57.276Z,101898.63
2018-07-13T13:39:25.093Z,101903.78
2018-07-13T13:41:52.464Z,101903.63
2018-07-13T13:44:20.689Z,101899.91
2018-07-13T13:46:48.003Z,101900.38
2018-07-13T13:49:15.419Z,101893.35
2018-07-13T13:51:42.814Z,101897.30
2018-07-13T13:54:10.127Z,101889.38
2018-07-13T13:56:37.596Z,101890.09
2018-07-13T13:59:05.354Z,101890.05
2018-07-13T14:01:32.813Z,101895.64
2018-07-13T14:04:00.152Z,101894.53
2018-07-13T14:06:27.593Z,101903.09
2018-07-13T14:08:55.254Z,101898.84
2018-07-13T14:11:22.722Z,101892.73
2018-07-13T14:13:50.468Z,101893.88
2018-07-13T14:16:18.466Z,101885.15
2018-07-13T14:18:45.762Z,101892.11
2018-07-13T14:21:13.057Z,101890.51
2018-07-13T14:23:41.125Z,101893.28
2018-07-13T14:26:09.625Z,101880.04
2018-07-13T14:28:37.193Z,101885.58
2018-07-13T14:31:04.977Z,101878.68
2018-07-13T14:33:32.282Z,101884.09
2018-07-13T14:35:59.762Z,101880.00
2018-07-13T14:38:27.200Z,101880.50
2018-07-13T14:40:54.942Z,101875.66
2018-07-13T14:43:22.375Z,101880.52
2018-07-13T14:45:49.781Z,101881.25
2018-07-13T14:48:17.139Z,101874.77
2018-07-13T14:50:44.624Z,101874.95
2018-07-13T14:53:12.019Z,101871.31
2018-07-13T14:55:39.459Z,101879.38
2018-07-13T14:58:06.711Z,101870.61
2018-07-13T15:00:33.981Z,101876.94
2018-07-13T15:03:01.266Z,101872.20
2018-07-13T15:05:28.668Z,101876.91
2018-07-13T15:07:55.995Z,101867.29
2018-07-13T15:10:23.356Z,101867.23
2018-07-13T15:12:50.689Z,101878.64
2018-07-13T15:15:18.125Z,101869.05
2018-07-13T15:17:45.659Z,101868.98
2018-07-13T15:20:12.933Z,101866.30
2018-07-13T15:22:40.332Z,101865.08
2018-07-13T15:25:07.613Z,101860.29
2018-07-13T15:27:34.942Z,101856.11
2018-07-13T15:30:02.333Z,101856.33
2018-07-13T15:32:29.574Z,101851.72
2018-07-13T15:34:56.865Z,101850.69
2018-07-13T15:37:24.232Z,101849.33
2018-07-13T15:39:51.490Z,101845.86
2018-07-13T15:42:18.755Z,101846.17
2018-07-13T15:44:45.984Z,101839.64
2018-07-13T15:47:13.910Z,101840.34
2018-07-13T15:49:41.142Z,101844.72
2018-07-13T15:52:08.399Z,101842.44
2018-07-13T15:54:35.631Z,101837.30
2018-07-13T15:57:02.902Z,101836.91
2018-07-13T15:59:30.128Z,101836.41
2018-07-13T16:01:57.365Z,101834.96
2018-07-13T16:04:24.970Z,101844.30
2018-07-13T16:06:52.334Z,101841.17
2018-07-13T16:09:19.923Z,101838.09
2018-07-13T16:11:47.659Z,101845.53
2018-07-13T16:14:15.022Z,101846.34
2018-07-13T16:16:42.360Z,101844.03
2018-07-13T16:19:09.676Z,101849.12
2018-07-13T16:21:36.986Z,101848.58
2018-07-13T16:24:04.241Z,101844.14
2018-07-13T16:26:31.537Z,101834.12
2018-07-13T16:28:58.766Z,101834.20
2018-07-13T16:31:26.065Z,101832.00
2018-07-13T16:33:53.283Z,101826.33
2018-07-13T16:36:20.597Z,101824.44
2018-07-13T16:38:47.868Z,101828.76
2018-07-13T16:41:15.202Z,101833.14
2018-07-13T16:43:42.466Z,101827.13
2018-07-13T16:46:09.760Z,101823.44
2018-07-13T16:48:36.989Z,101826.27
2018-07-13T16:51:04.236Z,101826.15
2018-07-13T16:53:31.479Z,101825.66
2018-07-13T16:55:58.677Z,101819.72
2018-07-13T16:58:25.974Z,101816.91
2018-07-13T17:00:53.277Z,101822.72
2018-07-13T17:03:20.584Z,101820.41
2018-07-13T17:05:48.174Z,101817.58
2018-07-13T17:08:15.751Z,101820.20
2018-07-13T17:10:43.136Z,101813.08
2018-07-13T17:13:10.399Z,101819.16
2018-07-13T17:15:37.611Z,101819.06
2018-07-13T17:18:05.019Z,101822.71
2018-07-13T17:20:32.466Z,101826.80
2018-07-13T17:22:59.651Z,101823.22
2018-07-13T17:25:26.917Z,101826.03
2018-07-13T17:27:54.265Z,101819.75
2018-07-13T17:30:21.560Z,101820.48
2018-07-13T17:32:49.644Z,101818.30
2018-07-13T17:35:16.948Z,101816.92
2018-07-13T17:37:44.335Z,101823.50
2018-07-13T17:40:11.663Z,101830.56
2018-07-13T17:42:39.157Z,101829.88
2018-07-13T17:45:06.536Z,101822.92
2018-07-13T17:47:33.861Z,101826.13
2018-07-13T17:50:01.199Z,101823.69
2018-07-13T17:52:28.449Z,101828.05
2018-07-13T17:54:55.755Z,101824.77
2018-07-13T17:57:22.993Z,101824.56
2018-07-13T17:59:50.316Z,101828.55
2018-07-13T18:02:17.575Z,101819.04
2018-07-13T18:04:44.818Z,101816.74
2018-07-13T18:07:12.170Z,101815.70
2018-07-13T18:09:39.540Z,101808.45
2018-07-13T18:12:06.809Z,101815.68
2018-07-13T18:14:34.064Z,101812.41
2018-07-13T18:17:01.366Z,101817.09
2018-07-13T18:22:02.512Z,101815.42
2018-07-13T18:24:29.784Z,101820.98
2018-07-13T18:26:57.138Z,101821.66
2018-07-13T18:29:24.413Z,101818.33
2018-07-13T18:31:51.651Z,101821.61
2018-07-13T18:34:18.896Z,101822.11
2018-07-13T18:36:46.112Z,101818.88
2018-07-13T18:39:13.360Z,101816.64
2018-07-13T18:41:40.738Z,101820.88
2018-07-13T18:44:08.034Z,101820.52
2018-07-13T18:46:35.262Z,101820.35
2018-07-13T18:49:02.507Z,101826.45
2018-07-13T18:51:29.770Z,101821.48
2018-07-13T18:53:57.038Z,101823.55
2018-07-13T18:56:24.289Z,101822.98
2018-07-13T18:58:51.602Z,101824.72
2018-07-13T19:01:18.878Z,101831.91
2018-07-13T19:03:46.207Z,101828.27
2018-07-13T19:06:13.464Z,101825.50
2018-07-13T19:08:40.737Z,101822.11
2018-07-13T19:11:08.117Z,101835.38
2018-07-13T19:13:35.577Z,101834.44
2018-07-13T19:16:02.829Z,101835.61
2018-07-13T19:18:30.174Z,101838.45
2018-07-13T19:20:57.464Z,101835.94
2018-07-13T19:23:24.796Z,101831.73
2018-07-13T19:25:52.157Z,101826.58
2018-07-13T19:28:19.378Z,101832.08
2018-07-13T19:30:46.801Z,101828.63
2018-07-13T19:33:14.065Z,101833.30
2018-07-13T19:35:41.336Z,101839.38
2018-07-13T19:38:08.611Z,101837.94
2018-07-13T19:40:35.913Z,101843.48
2018-07-13T19:43:03.583Z,101853.20
2018-07-13T19:45:30.980Z,101847.23
2018-07-13T19:47:58.311Z,101847.23
2018-07-13T19:50:25.757Z,101847.94
2018-07-13T19:52:53.025Z,101848.15
2018-07-13T19:55:20.338Z,101854.59
2018-07-13T19:57:47.618Z,101848.14
2018-07-13T20:00:15.349Z,101848.92
2018-07-13T20:02:42.647Z,101850.36
2018-07-13T20:05:09.920Z,101854.69
2018-07-13T20:07:37.404Z,101852.16
2018-07-13T20:10:04.650Z,101854.23
2018-07-13T20:12:32.037Z,101861.60
2018-07-13T20:14:59.887Z,101858.48
2018-07-13T20:17:27.134Z,101857.55
2018-07-13T20:19:54.365Z,101856.19
2018-07-13T20:22:21.613Z,101853.91
2018-07-13T20:24:48.902Z,101852.81
2018-07-13T20:27:16.185Z,101847.05
2018-07-13T20:29:43.378Z,101855.02
2018-07-13T20:32:10.652Z,101854.52
2018-07-13T20:34:38.008Z,101854.84
2018-07-13T20:37:05.291Z,101857.20
2018-07-13T20:39:32.657Z,101861.58
2018-07-13T20:41:59.917Z,101863.27
2018-07-13T20:44:27.156Z,101863.88
2018-07-13T20:46:54.419Z,101863.10
2018-07-13T20:49:22.437Z,101865.52
2018-07-13T20:51:49.713Z,101867.76
2018-07-13T20:54:17.045Z,101877.06
2018-07-13T20:56:45.037Z,101874.25
2018-07-13T20:59:12.331Z,101875.11
2018-07-13T21:01:39.574Z,101881.02
2018-07-13T21:04:07.002Z,101878.88
2018-07-13T21:06:34.293Z,101873.87
2018-07-13T21:09:01.596Z,101878.19
2018-07-13T21:11:28.826Z,101878.13
2018-07-13T21:13:56.093Z,101880.03
2018-07-13T21:16:23.942Z,101877.13
2018-07-13T21:18:51.202Z,101880.70
2018-07-13T21:21:18.453Z,101885.62
2018-07-13T21:23:45.827Z,101877.67
2018-07-13T21:26:13.818Z,101880.73
2018-07-13T21:28:41.137Z,101878.02
2018-07-13T21:31:08.391Z,101876.33
2018-07-13T21:33:35.940Z,101880.55
2018-07-13T21:36:03.193Z,101876.48
2018-07-13T21:38:30.506Z,101881.71
2018-07-13T21:40:59.071Z,101878.59
2018-07-13T21:43:26.491Z,101876.92
2018-07-13T21:45:54.454Z,101887.42
2018-07-13T21:48:21.734Z,101879.80
2018-07-13T21:50:49.125Z,101874.59
2018-07-13T21:53:17.045Z,101869.36
2018-07-13T21:55:44.351Z,101875.23
2018-07-13T21:58:12.012Z,101878.94
2018-07-13T22:00:39.274Z,101879.12
2018-07-13T22:03:06.623Z,101883.38
2018-07-13T22:05:33.895Z,101879.81
2018-07-13T22:08:01.153Z,101884.37
2018-07-13T22:10:28.510Z,101873.78
2018-07-13T22:12:55.769Z,101878.31
2018-07-13T22:15:23.015Z,101882.86
2018-07-13T22:17:50.256Z,101877.14
2018-07-13T22:20:17.507Z,101885.60
2018-07-13T22:22:44.790Z,101881.37
2018-07-13T22:25:12.053Z,101882.97
2018-07-13T22:27:39.292Z,101880.09
2018-07-13T22:30:06.541Z,101886.67
2018-07-13T22:32:33.995Z,101885.99
2018-07-13T22:35:01.360Z,101884.31
2018-07-13T22:37:28.652Z,101893.09
2018-07-13T22:39:55.951Z,101889.54
2018-07-13T22:42:23.202Z,101892.94
2018-07-13T22:44:50.508Z,101896.13
2018-07-13T22:47:17.833Z,101890.91
2018-07-13T22:49:45.172Z,101894.83
2018-07-13T22:52:12.396Z,101891.41
2018-07-13T22:54:39.633Z,101895.50
2018-07-13T22:57:06.928Z,101902.38
2018-07-13T22:59:34.161Z,101900.57
2018-07-13T23:02:01.395Z,101899.86
2018-07-13T23:04:29.661Z,101903.77
2018-07-13T23:06:56.913Z,101902.42
2018-07-13T23:09:24.331Z,101903.27
2018-07-13T23:11:51.815Z,101901.75
2018-07-13T23:14:19.228Z,101907.33
2018-07-13T23:16:46.526Z,101901.92
2018-07-13T23:19:14.042Z,101905.47
2018-07-13T23:21:41.452Z,101901.59
2018-07-13T23:24:08.942Z,101897.87
2018-07-13T23:26:36.281Z,101899.40
2018-07-13T23:29:03.534Z,101900.24
2018-07-13T23:31:31.017Z,101903.28
2018-07-13T23:33:58.566Z,101893.70
2018-07-13T23:36:25.873Z,101896.02
2018-07-13T23:38:53.321Z,101896.73
2018-07-13T23:41:20.566Z,101892.85
2018-07-13T23:43:47.843Z,101901.12
2018-07-13T23:46:15.368Z,101901.63
2018-07-13T23:48:43.830Z,101900.78
2018-07-13T23:51:12.214Z,101897.05
2018-07-13T23:53:39.500Z,101898.91
2018-07-13T23:56:06.818Z,101902.97
2018-07-13T23:58:34.077Z,101896.38
